sensor_id;sensor_type;location;lat;lon;timestamp;P1;durP1;ratioP1;P2;durP2;ratioP2
31004;SDS011;17676;52.254;4.490;2023-02-15T00:00:25;120.03;;;63.00;;
31004;SDS011;17676;52.254;4.490;2023-02-15T00:02:51;118.60;;;63.37;;
31004;SDS011;17676;52.254;4.490;2023-02-15T00:05:16;111.30;;;64.33;;
31004;SDS011;17676;52.254;4.490;2023-02-15T00:07:41;116.30;;;65.50;;
31004;SDS011;17676;52.254;4.490;2023-02-15T00:10:07;117.47;;;63.73;;
31004;SDS011;17676;52.254;4.490;2023-02-15T00:12:32;124.23;;;68.37;;
31004;SDS011;17676;52.254;4.490;2023-02-15T00:14:58;112.50;;;63.47;;
31004;SDS011;17676;52.254;4.490;2023-02-15T00:17:23;112.67;;;63.90;;
31004;SDS011;17676;52.254;4.490;2023-02-15T00:19:49;120.30;;;62.77;;
31004;SDS011;17676;52.254;4.490;2023-02-15T00:22:14;108.63;;;61.23;;
31004;SDS011;17676;52.254;4.490;2023-02-15T00:24:40;108.70;;;60.70;;
31004;SDS011;17676;52.254;4.490;2023-02-15T00:27:05;110.63;;;60.67;;
31004;SDS011;17676;52.254;4.490;2023-02-15T00:29:30;120.90;;;61.70;;
31004;SDS011;17676;52.254;4.490;2023-02-15T00:31:59;111.60;;;60.87;;
31004;SDS011;17676;52.254;4.490;2023-02-15T00:34:25;102.77;;;59.23;;
31004;SDS011;17676;52.254;4.490;2023-02-15T00:36:50;118.07;;;63.57;;
31004;SDS011;17676;52.254;4.490;2023-02-15T00:39:16;115.77;;;64.90;;
31004;SDS011;17676;52.254;4.490;2023-02-15T00:41:42;122.20;;;64.77;;
31004;SDS011;17676;52.254;4.490;2023-02-15T00:44:07;108.93;;;59.87;;
31004;SDS011;17676;52.254;4.490;2023-02-15T00:46:32;112.93;;;62.07;;
31004;SDS011;17676;52.254;4.490;2023-02-15T00:48:58;107.57;;;61.67;;
31004;SDS011;17676;52.254;4.490;2023-02-15T00:51:24;121.10;;;64.20;;
31004;SDS011;17676;52.254;4.490;2023-02-15T00:53:50;119.97;;;64.73;;
31004;SDS011;17676;52.254;4.490;2023-02-15T00:56:15;121.50;;;65.27;;
31004;SDS011;17676;52.254;4.490;2023-02-15T00:58:41;111.57;;;61.10;;
31004;SDS011;17676;52.254;4.490;2023-02-15T01:01:10;117.17;;;64.07;;
31004;SDS011;17676;52.254;4.490;2023-02-15T01:03:36;107.13;;;63.53;;
31004;SDS011;17676;52.254;4.490;2023-02-15T01:06:02;121.80;;;63.53;;
31004;SDS011;17676;52.254;4.490;2023-02-15T01:08:28;114.30;;;63.07;;
31004;SDS011;17676;52.254;4.490;2023-02-15T01:10:54;110.37;;;63.57;;
31004;SDS011;17676;52.254;4.490;2023-02-15T01:13:19;107.47;;;60.80;;
31004;SDS011;17676;52.254;4.490;2023-02-15T01:15:45;107.43;;;61.07;;
31004;SDS011;17676;52.254;4.490;2023-02-15T01:18:10;111.90;;;61.87;;
31004;SDS011;17676;52.254;4.490;2023-02-15T01:20:36;112.17;;;62.00;;
31004;SDS011;17676;52.254;4.490;2023-02-15T01:23:04;107.47;;;60.27;;
31004;SDS011;17676;52.254;4.490;2023-02-15T01:25:29;107.23;;;61.03;;
31004;SDS011;17676;52.254;4.490;2023-02-15T01:27:55;113.83;;;62.50;;
31004;SDS011;17676;52.254;4.490;2023-02-15T01:30:20;110.70;;;63.37;;
31004;SDS011;17676;52.254;4.490;2023-02-15T01:32:46;110.27;;;61.73;;
31004;SDS011;17676;52.254;4.490;2023-02-15T01:35:11;110.13;;;62.13;;
31004;SDS011;17676;52.254;4.490;2023-02-15T01:37:36;115.43;;;61.90;;
31004;SDS011;17676;52.254;4.490;2023-02-15T01:40:05;113.27;;;62.27;;
31004;SDS011;17676;52.254;4.490;2023-02-15T01:42:30;108.93;;;64.40;;
31004;SDS011;17676;52.254;4.490;2023-02-15T01:44:58;115.57;;;63.70;;
31004;SDS011;17676;52.254;4.490;2023-02-15T01:47:29;118.53;;;64.60;;
31004;SDS011;17676;52.254;4.490;2023-02-15T01:50:44;108.03;;;61.60;;
31004;SDS011;17676;52.254;4.490;2023-02-15T01:52:48;120.37;;;65.70;;
31004;SDS011;17676;52.254;4.490;2023-02-15T01:55:16;112.73;;;63.10;;
31004;SDS011;17676;52.254;4.490;2023-02-15T01:57:42;115.77;;;63.17;;
31004;SDS011;17676;52.254;4.490;2023-02-15T02:00:09;112.87;;;62.83;;
31004;SDS011;17676;52.254;4.490;2023-02-15T02:02:34;107.20;;;61.10;;
31004;SDS011;17676;52.254;4.490;2023-02-15T02:05:01;108.57;;;59.87;;
31004;SDS011;17676;52.254;4.490;2023-02-15T02:07:35;110.33;;;60.20;;
31004;SDS011;17676;52.254;4.490;2023-02-15T02:10:01;107.13;;;61.07;;
31004;SDS011;17676;52.254;4.490;2023-02-15T02:12:27;103.30;;;59.17;;
31004;SDS011;17676;52.254;4.490;2023-02-15T02:14:53;104.30;;;59.37;;
31004;SDS011;17676;52.254;4.490;2023-02-15T02:17:42;107.97;;;59.80;;
31004;SDS011;17676;52.254;4.490;2023-02-15T02:33:20;103.27;;;59.03;;
31004;SDS011;17676;52.254;4.490;2023-02-15T02:43:48;109.23;;;60.67;;
31004;SDS011;17676;52.254;4.490;2023-02-15T02:46:30;105.33;;;58.70;;
31004;SDS011;17676;52.254;4.490;2023-02-15T02:48:57;103.47;;;57.90;;
31004;SDS011;17676;52.254;4.490;2023-02-15T02:51:22;99.70;;;57.23;;
31004;SDS011;17676;52.254;4.490;2023-02-15T02:53:51;97.33;;;57.77;;
31004;SDS011;17676;52.254;4.490;2023-02-15T02:56:35;100.83;;;58.07;;
31004;SDS011;17676;52.254;4.490;2023-02-15T02:59:03;103.77;;;57.30;;
31004;SDS011;17676;52.254;4.490;2023-02-15T03:01:32;102.33;;;58.43;;
31004;SDS011;17676;52.254;4.490;2023-02-15T03:04:01;109.23;;;59.10;;
31004;SDS011;17676;52.254;4.490;2023-02-15T03:08:58;96.83;;;56.33;;
31004;SDS011;17676;52.254;4.490;2023-02-15T03:11:25;91.57;;;55.00;;
31004;SDS011;17676;52.254;4.490;2023-02-15T03:13:51;94.57;;;55.33;;
31004;SDS011;17676;52.254;4.490;2023-02-15T03:16:16;86.13;;;55.57;;
31004;SDS011;17676;52.254;4.490;2023-02-15T03:21:47;85.13;;;53.03;;
31004;SDS011;17676;52.254;4.490;2023-02-15T03:24:48;92.50;;;52.57;;
31004;SDS011;17676;52.254;4.490;2023-02-15T03:27:16;86.33;;;52.30;;
31004;SDS011;17676;52.254;4.490;2023-02-15T03:29:44;85.67;;;52.47;;
31004;SDS011;17676;52.254;4.490;2023-02-15T03:32:10;82.13;;;52.40;;
31004;SDS011;17676;52.254;4.490;2023-02-15T03:34:36;79.20;;;50.90;;
31004;SDS011;17676;52.254;4.490;2023-02-15T03:45:03;75.13;;;48.10;;
31004;SDS011;17676;52.254;4.490;2023-02-15T03:47:30;79.77;;;50.60;;
31004;SDS011;17676;52.254;4.490;2023-02-15T03:50:01;80.87;;;49.87;;
31004;SDS011;17676;52.254;4.490;2023-02-15T03:52:27;79.23;;;50.83;;
31004;SDS011;17676;52.254;4.490;2023-02-15T03:54:53;94.60;;;51.50;;
31004;SDS011;17676;52.254;4.490;2023-02-15T03:57:21;85.33;;;51.07;;
31004;SDS011;17676;52.254;4.490;2023-02-15T04:00:11;79.43;;;50.67;;
31004;SDS011;17676;52.254;4.490;2023-02-15T04:03:15;76.93;;;51.20;;
31004;SDS011;17676;52.254;4.490;2023-02-15T04:05:44;77.97;;;49.90;;
31004;SDS011;17676;52.254;4.490;2023-02-15T04:08:10;74.17;;;48.77;;
31004;SDS011;17676;52.254;4.490;2023-02-15T04:10:35;71.20;;;48.13;;
31004;SDS011;17676;52.254;4.490;2023-02-15T04:13:24;73.90;;;48.13;;
31004;SDS011;17676;52.254;4.490;2023-02-15T04:15:54;68.07;;;46.47;;
31004;SDS011;17676;52.254;4.490;2023-02-15T04:18:32;71.73;;;47.37;;
31004;SDS011;17676;52.254;4.490;2023-02-15T04:21:17;67.83;;;46.80;;
31004;SDS011;17676;52.254;4.490;2023-02-15T04:24:01;72.27;;;45.40;;
31004;SDS011;17676;52.254;4.490;2023-02-15T04:26:45;66.90;;;45.57;;
31004;SDS011;17676;52.254;4.490;2023-02-15T04:29:14;70.27;;;45.43;;
31004;SDS011;17676;52.254;4.490;2023-02-15T04:31:40;68.53;;;45.33;;
31004;SDS011;17676;52.254;4.490;2023-02-15T04:34:05;65.53;;;45.43;;
31004;SDS011;17676;52.254;4.490;2023-02-15T04:36:31;65.90;;;44.70;;
31004;SDS011;17676;52.254;4.490;2023-02-15T04:38:57;67.80;;;44.53;;
31004;SDS011;17676;52.254;4.490;2023-02-15T04:41:22;63.90;;;44.57;;
31004;SDS011;17676;52.254;4.490;2023-02-15T04:43:47;62.47;;;43.90;;
31004;SDS011;17676;52.254;4.490;2023-02-15T04:46:12;59.33;;;42.77;;
31004;SDS011;17676;52.254;4.490;2023-02-15T04:48:38;64.73;;;43.53;;
31004;SDS011;17676;52.254;4.490;2023-02-15T04:51:06;66.03;;;45.27;;
31004;SDS011;17676;52.254;4.490;2023-02-15T04:53:32;64.93;;;44.67;;
31004;SDS011;17676;52.254;4.490;2023-02-15T04:55:58;67.07;;;46.17;;
31004;SDS011;17676;52.254;4.490;2023-02-15T04:58:23;68.93;;;46.03;;
31004;SDS011;17676;52.254;4.490;2023-02-15T05:00:48;72.07;;;45.47;;
31004;SDS011;17676;52.254;4.490;2023-02-15T05:03:13;74.13;;;45.80;;
31004;SDS011;17676;52.254;4.490;2023-02-15T05:05:39;73.27;;;46.03;;
31004;SDS011;17676;52.254;4.490;2023-02-15T05:08:05;70.63;;;45.37;;
31004;SDS011;17676;52.254;4.490;2023-02-15T05:10:33;71.57;;;46.33;;
31004;SDS011;17676;52.254;4.490;2023-02-15T05:12:59;69.50;;;44.70;;
31004;SDS011;17676;52.254;4.490;2023-02-15T05:15:24;72.23;;;44.90;;
31004;SDS011;17676;52.254;4.490;2023-02-15T05:17:50;75.57;;;46.07;;
31004;SDS011;17676;52.254;4.490;2023-02-15T05:20:17;78.17;;;48.30;;
31004;SDS011;17676;52.254;4.490;2023-02-15T05:22:44;79.40;;;47.40;;
31004;SDS011;17676;52.254;4.490;2023-02-15T05:25:09;73.90;;;46.20;;
31004;SDS011;17676;52.254;4.490;2023-02-15T05:27:53;74.67;;;46.90;;
31004;SDS011;17676;52.254;4.490;2023-02-15T05:30:37;82.03;;;48.27;;
31004;SDS011;17676;52.254;4.490;2023-02-15T05:33:05;78.73;;;45.87;;
31004;SDS011;17676;52.254;4.490;2023-02-15T05:35:31;92.07;;;50.47;;
31004;SDS011;17676;52.254;4.490;2023-02-15T05:37:57;83.93;;;48.97;;
31004;SDS011;17676;52.254;4.490;2023-02-15T05:40:23;91.23;;;53.10;;
31004;SDS011;17676;52.254;4.490;2023-02-15T05:42:48;97.23;;;55.27;;
31004;SDS011;17676;52.254;4.490;2023-02-15T05:45:14;104.03;;;54.33;;
31004;SDS011;17676;52.254;4.490;2023-02-15T05:47:40;93.57;;;51.47;;
31004;SDS011;17676;52.254;4.490;2023-02-15T05:50:05;90.70;;;52.50;;
31004;SDS011;17676;52.254;4.490;2023-02-15T05:52:31;96.47;;;53.77;;
31004;SDS011;17676;52.254;4.490;2023-02-15T05:54:56;94.20;;;51.23;;
31004;SDS011;17676;52.254;4.490;2023-02-15T05:57:23;93.00;;;50.97;;
31004;SDS011;17676;52.254;4.490;2023-02-15T05:59:48;90.47;;;51.43;;
31004;SDS011;17676;52.254;4.490;2023-02-15T06:02:13;86.23;;;50.63;;
31004;SDS011;17676;52.254;4.490;2023-02-15T06:04:38;85.67;;;51.40;;
31004;SDS011;17676;52.254;4.490;2023-02-15T06:07:03;90.03;;;52.03;;
31004;SDS011;17676;52.254;4.490;2023-02-15T06:09:30;84.63;;;50.47;;
31004;SDS011;17676;52.254;4.490;2023-02-15T06:11:55;102.43;;;52.20;;
31004;SDS011;17676;52.254;4.490;2023-02-15T06:14:21;94.17;;;52.83;;
31004;SDS011;17676;52.254;4.490;2023-02-15T06:16:46;96.40;;;52.97;;
31004;SDS011;17676;52.254;4.490;2023-02-15T06:19:11;95.77;;;51.77;;
31004;SDS011;17676;52.254;4.490;2023-02-15T06:21:36;96.23;;;52.23;;
31004;SDS011;17676;52.254;4.490;2023-02-15T06:24:02;101.83;;;57.13;;
31004;SDS011;17676;52.254;4.490;2023-02-15T06:26:27;104.67;;;54.20;;
31004;SDS011;17676;52.254;4.490;2023-02-15T06:28:53;95.70;;;54.37;;
31004;SDS011;17676;52.254;4.490;2023-02-15T06:31:18;103.20;;;53.37;;
31004;SDS011;17676;52.254;4.490;2023-02-15T06:33:47;107.33;;;56.27;;
31004;SDS011;17676;52.254;4.490;2023-02-15T06:36:13;95.27;;;54.03;;
31004;SDS011;17676;52.254;4.490;2023-02-15T06:38:38;100.93;;;54.83;;
31004;SDS011;17676;52.254;4.490;2023-02-15T06:41:03;100.27;;;56.40;;
31004;SDS011;17676;52.254;4.490;2023-02-15T06:43:29;100.40;;;55.50;;
31004;SDS011;17676;52.254;4.490;2023-02-15T06:45:54;103.37;;;55.23;;
31004;SDS011;17676;52.254;4.490;2023-02-15T06:48:19;92.03;;;52.37;;
31004;SDS011;17676;52.254;4.490;2023-02-15T06:50:45;101.63;;;55.17;;
31004;SDS011;17676;52.254;4.490;2023-02-15T06:53:10;112.27;;;55.70;;
31004;SDS011;17676;52.254;4.490;2023-02-15T06:55:36;105.03;;;56.60;;
31004;SDS011;17676;52.254;4.490;2023-02-15T06:58:02;104.17;;;55.27;;
31004;SDS011;17676;52.254;4.490;2023-02-15T07:00:28;114.97;;;57.13;;
31004;SDS011;17676;52.254;4.490;2023-02-15T07:02:54;97.30;;;54.63;;
31004;SDS011;17676;52.254;4.490;2023-02-15T07:05:22;114.93;;;59.23;;
31004;SDS011;17676;52.254;4.490;2023-02-15T07:07:49;117.37;;;60.43;;
31004;SDS011;17676;52.254;4.490;2023-02-15T07:10:15;107.27;;;54.57;;
31004;SDS011;17676;52.254;4.490;2023-02-15T07:12:40;110.90;;;59.17;;
31004;SDS011;17676;52.254;4.490;2023-02-15T07:15:12;110.17;;;56.17;;
31004;SDS011;17676;52.254;4.490;2023-02-15T07:17:39;107.77;;;57.77;;
31004;SDS011;17676;52.254;4.490;2023-02-15T07:20:07;105.23;;;55.57;;
31004;SDS011;17676;52.254;4.490;2023-02-15T07:22:34;107.50;;;56.37;;
31004;SDS011;17676;52.254;4.490;2023-02-15T07:25:02;109.03;;;56.70;;
31004;SDS011;17676;52.254;4.490;2023-02-15T07:27:27;113.83;;;58.63;;
31004;SDS011;17676;52.254;4.490;2023-02-15T07:29:53;114.07;;;56.63;;
31004;SDS011;17676;52.254;4.490;2023-02-15T07:32:19;101.33;;;53.23;;
31004;SDS011;17676;52.254;4.490;2023-02-15T07:34:45;106.10;;;56.80;;
31004;SDS011;17676;52.254;4.490;2023-02-15T07:37:10;110.90;;;57.93;;
31004;SDS011;17676;52.254;4.490;2023-02-15T07:39:35;107.80;;;59.17;;
31004;SDS011;17676;52.254;4.490;2023-02-15T07:42:01;97.00;;;53.03;;
31004;SDS011;17676;52.254;4.490;2023-02-15T07:44:26;102.93;;;55.30;;
31004;SDS011;17676;52.254;4.490;2023-02-15T07:46:51;96.27;;;54.47;;
31004;SDS011;17676;52.254;4.490;2023-02-15T07:49:17;104.43;;;56.43;;
31004;SDS011;17676;52.254;4.490;2023-02-15T07:51:42;96.93;;;52.93;;
31004;SDS011;17676;52.254;4.490;2023-02-15T07:54:08;85.77;;;51.90;;
31004;SDS011;17676;52.254;4.490;2023-02-15T07:56:33;100.77;;;53.90;;
31004;SDS011;17676;52.254;4.490;2023-02-15T07:58:58;92.93;;;53.07;;
31004;SDS011;17676;52.254;4.490;2023-02-15T08:01:29;95.70;;;52.27;;
31004;SDS011;17676;52.254;4.490;2023-02-15T08:03:56;87.50;;;51.77;;
31004;SDS011;17676;52.254;4.490;2023-02-15T08:06:22;88.83;;;52.00;;
31004;SDS011;17676;52.254;4.490;2023-02-15T08:08:48;100.00;;;54.57;;
31004;SDS011;17676;52.254;4.490;2023-02-15T08:11:15;91.00;;;53.10;;
31004;SDS011;17676;52.254;4.490;2023-02-15T08:16:29;93.97;;;52.70;;
31004;SDS011;17676;52.254;4.490;2023-02-15T08:21:34;89.73;;;49.87;;
31004;SDS011;17676;52.254;4.490;2023-02-15T08:23:59;85.80;;;50.23;;
31004;SDS011;17676;52.254;4.490;2023-02-15T08:26:26;80.83;;;49.73;;
31004;SDS011;17676;52.254;4.490;2023-02-15T08:28:56;80.27;;;49.37;;
31004;SDS011;17676;52.254;4.490;2023-02-15T08:31:21;84.90;;;48.50;;
31004;SDS011;17676;52.254;4.490;2023-02-15T08:33:48;80.27;;;47.07;;
31004;SDS011;17676;52.254;4.490;2023-02-15T08:36:16;77.73;;;47.40;;
31004;SDS011;17676;52.254;4.490;2023-02-15T08:38:41;71.57;;;46.43;;
31004;SDS011;17676;52.254;4.490;2023-02-15T08:41:17;72.73;;;43.67;;
31004;SDS011;17676;52.254;4.490;2023-02-15T08:43:45;78.03;;;45.30;;
31004;SDS011;17676;52.254;4.490;2023-02-15T08:46:12;64.60;;;39.78;;
31004;SDS011;17676;52.254;4.490;2023-02-15T08:48:37;53.58;;;37.13;;
31004;SDS011;17676;52.254;4.490;2023-02-15T08:51:06;51.90;;;36.28;;
31004;SDS011;17676;52.254;4.490;2023-02-15T08:53:31;49.35;;;35.58;;
31004;SDS011;17676;52.254;4.490;2023-02-15T08:55:57;52.95;;;34.03;;
31004;SDS011;17676;52.254;4.490;2023-02-15T08:58:23;45.45;;;33.58;;
31004;SDS011;17676;52.254;4.490;2023-02-15T09:00:49;50.72;;;32.63;;
31004;SDS011;17676;52.254;4.490;2023-02-15T09:03:14;43.20;;;31.80;;
31004;SDS011;17676;52.254;4.490;2023-02-15T09:05:39;42.90;;;29.52;;
31004;SDS011;17676;52.254;4.490;2023-02-15T09:08:05;45.15;;;30.42;;
31004;SDS011;17676;52.254;4.490;2023-02-15T09:10:32;45.08;;;31.15;;
31004;SDS011;17676;52.254;4.490;2023-02-15T09:12:57;46.90;;;32.58;;
31004;SDS011;17676;52.254;4.490;2023-02-15T09:15:24;41.10;;;30.85;;
31004;SDS011;17676;52.254;4.490;2023-02-15T09:17:49;38.90;;;29.92;;
31004;SDS011;17676;52.254;4.490;2023-02-15T09:20:14;41.88;;;30.55;;
31004;SDS011;17676;52.254;4.490;2023-02-15T09:22:40;42.03;;;32.13;;
31004;SDS011;17676;52.254;4.490;2023-02-15T09:25:07;37.92;;;30.98;;
31004;SDS011;17676;52.254;4.490;2023-02-15T09:27:33;43.67;;;30.95;;
31004;SDS011;17676;52.254;4.490;2023-02-15T09:32:45;39.67;;;30.10;;
31004;SDS011;17676;52.254;4.490;2023-02-15T09:35:12;41.13;;;30.80;;
31004;SDS011;17676;52.254;4.490;2023-02-15T09:37:37;40.83;;;31.90;;
31004;SDS011;17676;52.254;4.490;2023-02-15T09:40:11;42.13;;;32.22;;
31004;SDS011;17676;52.254;4.490;2023-02-15T09:42:44;42.42;;;31.20;;
31004;SDS011;17676;52.254;4.490;2023-02-15T09:50:55;43.53;;;33.10;;
31004;SDS011;17676;52.254;4.490;2023-02-15T09:56:33;49.03;;;34.53;;
31004;SDS011;17676;52.254;4.490;2023-02-15T10:09:51;52.83;;;36.28;;
31004;SDS011;17676;52.254;4.490;2023-02-15T10:25:07;53.28;;;37.70;;
31004;SDS011;17676;52.254;4.490;2023-02-15T10:27:38;54.45;;;37.90;;
31004;SDS011;17676;52.254;4.490;2023-02-15T10:30:09;55.10;;;38.63;;
31004;SDS011;17676;52.254;4.490;2023-02-15T10:32:50;52.22;;;37.75;;
31004;SDS011;17676;52.254;4.490;2023-02-15T10:35:31;52.75;;;37.80;;
31004;SDS011;17676;52.254;4.490;2023-02-15T10:40:43;56.13;;;38.40;;
31004;SDS011;17676;52.254;4.490;2023-02-15T10:45:52;54.83;;;39.95;;
31004;SDS011;17676;52.254;4.490;2023-02-15T10:48:22;54.30;;;38.28;;
31004;SDS011;17676;52.254;4.490;2023-02-15T10:51:01;54.17;;;39.08;;
31004;SDS011;17676;52.254;4.490;2023-02-15T10:56:17;53.40;;;40.42;;
31004;SDS011;17676;52.254;4.490;2023-02-15T10:59:03;57.45;;;40.03;;
31004;SDS011;17676;52.254;4.490;2023-02-15T11:01:42;54.28;;;40.35;;
31004;SDS011;17676;52.254;4.490;2023-02-15T11:09:42;56.33;;;39.15;;
31004;SDS011;17676;52.254;4.490;2023-02-15T11:12:18;50.75;;;36.35;;
31004;SDS011;17676;52.254;4.490;2023-02-15T11:14:46;59.50;;;40.85;;
31004;SDS011;17676;52.254;4.490;2023-02-15T11:17:19;57.92;;;40.45;;
31004;SDS011;17676;52.254;4.490;2023-02-15T11:20:02;58.17;;;40.38;;
31004;SDS011;17676;52.254;4.490;2023-02-15T11:22:30;57.92;;;40.60;;
31004;SDS011;17676;52.254;4.490;2023-02-15T11:24:57;51.58;;;39.35;;
31004;SDS011;17676;52.254;4.490;2023-02-15T11:27:27;61.35;;;40.17;;
31004;SDS011;17676;52.254;4.490;2023-02-15T11:30:10;52.13;;;38.63;;
31004;SDS011;17676;52.254;4.490;2023-02-15T11:32:44;56.35;;;39.75;;
31004;SDS011;17676;52.254;4.490;2023-02-15T11:37:49;54.22;;;40.50;;
31004;SDS011;17676;52.254;4.490;2023-02-15T11:43:12;49.88;;;38.60;;
31004;SDS011;17676;52.254;4.490;2023-02-15T11:45:49;53.30;;;38.45;;
31004;SDS011;17676;52.254;4.490;2023-02-15T11:48:19;53.95;;;37.80;;
31004;SDS011;17676;52.254;4.490;2023-02-15T11:50:45;56.10;;;37.88;;
31004;SDS011;17676;52.254;4.490;2023-02-15T11:53:20;51.05;;;37.20;;
31004;SDS011;17676;52.254;4.490;2023-02-15T11:55:48;56.13;;;38.63;;
31004;SDS011;17676;52.254;4.490;2023-02-15T12:00:56;51.17;;;38.10;;
31004;SDS011;17676;52.254;4.490;2023-02-15T12:06:04;45.55;;;35.30;;
31004;SDS011;17676;52.254;4.490;2023-02-15T12:08:40;51.20;;;35.92;;
31004;SDS011;17676;52.254;4.490;2023-02-15T12:11:08;49.05;;;35.50;;
31004;SDS011;17676;52.254;4.490;2023-02-15T12:13:53;51.75;;;37.55;;
31004;SDS011;17676;52.254;4.490;2023-02-15T12:16:18;52.72;;;37.97;;
31004;SDS011;17676;52.254;4.490;2023-02-15T12:18:43;49.83;;;38.40;;
31004;SDS011;17676;52.254;4.490;2023-02-15T12:21:24;53.83;;;39.00;;
31004;SDS011;17676;52.254;4.490;2023-02-15T12:23:51;50.47;;;38.70;;
31004;SDS011;17676;52.254;4.490;2023-02-15T12:26:54;47.33;;;37.08;;
31004;SDS011;17676;52.254;4.490;2023-02-15T12:29:17;49.92;;;38.38;;
31004;SDS011;17676;52.254;4.490;2023-02-15T12:31:47;51.08;;;38.63;;
31004;SDS011;17676;52.254;4.490;2023-02-15T12:34:19;55.08;;;39.55;;
31004;SDS011;17676;52.254;4.490;2023-02-15T12:36:47;51.50;;;39.30;;
31004;SDS011;17676;52.254;4.490;2023-02-15T12:39:17;52.92;;;39.28;;
31004;SDS011;17676;52.254;4.490;2023-02-15T12:41:45;56.28;;;40.50;;
31004;SDS011;17676;52.254;4.490;2023-02-15T12:44:18;55.85;;;39.60;;
31004;SDS011;17676;52.254;4.490;2023-02-15T12:47:00;57.40;;;40.28;;
31004;SDS011;17676;52.254;4.490;2023-02-15T12:49:26;58.55;;;40.08;;
31004;SDS011;17676;52.254;4.490;2023-02-15T12:51:57;57.55;;;40.42;;
31004;SDS011;17676;52.254;4.490;2023-02-15T12:56:48;55.92;;;40.63;;
31004;SDS011;17676;52.254;4.490;2023-02-15T12:59:14;56.80;;;39.85;;
31004;SDS011;17676;52.254;4.490;2023-02-15T13:01:40;56.10;;;40.13;;
31004;SDS011;17676;52.254;4.490;2023-02-15T13:04:14;56.78;;;38.05;;
31004;SDS011;17676;52.254;4.490;2023-02-15T13:06:46;53.10;;;39.72;;
31004;SDS011;17676;52.254;4.490;2023-02-15T13:09:20;51.88;;;38.53;;
31004;SDS011;17676;52.254;4.490;2023-02-15T13:11:45;50.53;;;37.65;;
31004;SDS011;17676;52.254;4.490;2023-02-15T13:14:31;55.25;;;36.55;;
31004;SDS011;17676;52.254;4.490;2023-02-15T13:16:57;50.05;;;36.78;;
31004;SDS011;17676;52.254;4.490;2023-02-15T13:21:49;54.23;;;38.10;;
31004;SDS011;17676;52.254;4.490;2023-02-15T13:26:41;54.55;;;36.72;;
31004;SDS011;17676;52.254;4.490;2023-02-15T13:29:12;50.65;;;35.67;;
31004;SDS011;17676;52.254;4.490;2023-02-15T13:31:40;48.72;;;36.60;;
31004;SDS011;17676;52.254;4.490;2023-02-15T13:34:10;51.92;;;37.25;;
31004;SDS011;17676;52.254;4.490;2023-02-15T13:39:18;50.55;;;36.70;;
31004;SDS011;17676;52.254;4.490;2023-02-15T13:56:50;50.70;;;35.80;;
31004;SDS011;17676;52.254;4.490;2023-02-15T14:01:56;52.45;;;35.05;;
31004;SDS011;17676;52.254;4.490;2023-02-15T14:17:59;51.45;;;35.45;;
31004;SDS011;17676;52.254;4.490;2023-02-15T14:20:45;52.67;;;35.75;;
31004;SDS011;17676;52.254;4.490;2023-02-15T14:31:19;44.95;;;30.08;;
31004;SDS011;17676;52.254;4.490;2023-02-15T14:33:56;44.92;;;30.55;;
31004;SDS011;17676;52.254;4.490;2023-02-15T14:36:22;41.97;;;29.85;;
31004;SDS011;17676;52.254;4.490;2023-02-15T14:39:02;49.33;;;29.65;;
31004;SDS011;17676;52.254;4.490;2023-02-15T14:41:53;39.85;;;27.38;;
31004;SDS011;17676;52.254;4.490;2023-02-15T14:49:30;46.97;;;30.88;;
31004;SDS011;17676;52.254;4.490;2023-02-15T14:51:57;43.83;;;31.05;;
31004;SDS011;17676;52.254;4.490;2023-02-15T14:59:41;47.70;;;31.30;;
31004;SDS011;17676;52.254;4.490;2023-02-15T15:07:09;47.95;;;32.10;;
31004;SDS011;17676;52.254;4.490;2023-02-15T15:09:39;45.70;;;31.52;;
31004;SDS011;17676;52.254;4.490;2023-02-15T15:14:45;52.83;;;32.20;;
31004;SDS011;17676;52.254;4.490;2023-02-15T15:17:12;51.00;;;32.40;;
31004;SDS011;17676;52.254;4.490;2023-02-15T15:22:21;45.67;;;32.28;;
31004;SDS011;17676;52.254;4.490;2023-02-15T15:24:48;48.10;;;34.00;;
31004;SDS011;17676;52.254;4.490;2023-02-15T15:29:57;46.90;;;32.63;;
31004;SDS011;17676;52.254;4.490;2023-02-15T15:32:22;47.92;;;34.60;;
31004;SDS011;17676;52.254;4.490;2023-02-15T15:37:48;48.80;;;32.90;;
31004;SDS011;17676;52.254;4.490;2023-02-15T15:40:21;50.70;;;33.78;;
31004;SDS011;17676;52.254;4.490;2023-02-15T15:45:41;51.58;;;33.83;;
31004;SDS011;17676;52.254;4.490;2023-02-15T15:50:34;51.75;;;34.40;;
31004;SDS011;17676;52.254;4.490;2023-02-15T15:53:00;48.40;;;34.25;;
31004;SDS011;17676;52.254;4.490;2023-02-15T15:55:27;50.05;;;33.72;;
31004;SDS011;17676;52.254;4.490;2023-02-15T15:57:53;46.40;;;32.83;;
31004;SDS011;17676;52.254;4.490;2023-02-15T16:00:31;52.60;;;32.28;;
31004;SDS011;17676;52.254;4.490;2023-02-15T16:02:58;49.72;;;33.83;;
31004;SDS011;17676;52.254;4.490;2023-02-15T16:05:23;51.90;;;35.50;;
31004;SDS011;17676;52.254;4.490;2023-02-15T16:07:48;47.05;;;34.70;;
31004;SDS011;17676;52.254;4.490;2023-02-15T16:10:27;51.55;;;36.03;;
31004;SDS011;17676;52.254;4.490;2023-02-15T16:12:53;55.78;;;35.63;;
31004;SDS011;17676;52.254;4.490;2023-02-15T16:15:23;53.75;;;35.90;;
31004;SDS011;17676;52.254;4.490;2023-02-15T16:17:50;53.60;;;35.55;;
31004;SDS011;17676;52.254;4.490;2023-02-15T16:20:28;51.08;;;36.22;;
31004;SDS011;17676;52.254;4.490;2023-02-15T16:28:07;51.65;;;36.15;;
31004;SDS011;17676;52.254;4.490;2023-02-15T16:30:33;53.97;;;37.50;;
31004;SDS011;17676;52.254;4.490;2023-02-15T16:33:09;54.22;;;36.63;;
31004;SDS011;17676;52.254;4.490;2023-02-15T16:35:36;55.30;;;37.67;;
31004;SDS011;17676;52.254;4.490;2023-02-15T16:38:02;52.35;;;37.88;;
31004;SDS011;17676;52.254;4.490;2023-02-15T16:40:31;53.35;;;35.20;;
31004;SDS011;17676;52.254;4.490;2023-02-15T16:43:00;55.63;;;38.08;;
31004;SDS011;17676;52.254;4.490;2023-02-15T16:45:26;55.70;;;38.45;;
31004;SDS011;17676;52.254;4.490;2023-02-15T16:47:53;56.38;;;37.95;;
31004;SDS011;17676;52.254;4.490;2023-02-15T16:50:22;54.42;;;38.65;;
31004;SDS011;17676;52.254;4.490;2023-02-15T16:52:48;57.70;;;38.20;;
31004;SDS011;17676;52.254;4.490;2023-02-15T16:55:24;55.00;;;38.25;;
31004;SDS011;17676;52.254;4.490;2023-02-15T16:57:50;55.20;;;38.45;;
31004;SDS011;17676;52.254;4.490;2023-02-15T17:00:20;55.80;;;35.67;;
31004;SDS011;17676;52.254;4.490;2023-02-15T17:02:54;100.80;;;62.55;;
31004;SDS011;17676;52.254;4.490;2023-02-15T17:05:23;61.63;;;42.97;;
31004;SDS011;17676;52.254;4.490;2023-02-15T17:08:03;53.75;;;39.08;;
31004;SDS011;17676;52.254;4.490;2023-02-15T17:10:33;53.65;;;38.20;;
31004;SDS011;17676;52.254;4.490;2023-02-15T17:13:02;58.97;;;40.50;;
31004;SDS011;17676;52.254;4.490;2023-02-15T17:15:29;60.28;;;38.53;;
31004;SDS011;17676;52.254;4.490;2023-02-15T17:18:00;56.33;;;39.78;;
31004;SDS011;17676;52.254;4.490;2023-02-15T17:20:26;57.05;;;39.17;;
31004;SDS011;17676;52.254;4.490;2023-02-15T17:22:52;54.42;;;38.92;;
31004;SDS011;17676;52.254;4.490;2023-02-15T17:25:22;54.30;;;39.03;;
31004;SDS011;17676;52.254;4.490;2023-02-15T17:27:53;57.15;;;38.47;;
31004;SDS011;17676;52.254;4.490;2023-02-15T17:30:31;59.80;;;41.28;;
31004;SDS011;17676;52.254;4.490;2023-02-15T17:32:59;64.28;;;40.85;;